Long Prairie, MN (56347)

22:22 CDT le 03 août 2015 (GMT -0500)
Long Prairie | | Change Station
CLOSE
Current Station
Aéroport
Location: Long Prairie,
Altitude: 1332 ft
Stations météo à proximité

Alt. 1332 ft 45.90 °N, 94.87 °W | Updated 2 minutes ago

Ciel dégagé
Ciel dégagé
57 ° F
Paraît 57 ° F
N
0
Vent Variable Vent de Nord

Aujourd'hui
Haut(e) -- | Bas -- ° F
--% Risque de précip.
Hier
Haut(e) -- | Bas -- ° F
Precip. -- pouce
6:04 AM 8:46 PM
Lune gibbeuse décroissante, 81% visible
Pression 29.96 pouce
Visibilité 7.0 Miles terrestres
Nuages Ciel dégagé
Point de rosée 52 ° F
Humidité 82%
Précipitations 0.00 pouce
Profondeur de la couche neigeuse Non disponible.
UV 0 sur 12
Pollen 7.10 sur 12
Qualité de l'air Non disponible.
Flu Activity Non disponible.
METAR K14Y 040320Z AUTO 00000KT 7SM CLR 14/11 A2996 RMK AO2

More Conditions Fewer Conditions

Pression 29.96 pouce
Visibilité 7.0 Miles terrestres
Nuages Ciel dégagé
Point de rosée 52 ° F
Humidité 82%
Précipitations 0.00 pouce
Profondeur de la couche neigeuse Non disponible.
UV 0 sur 12
Pollen 7.10 sur 12
Qualité de l'air Non disponible.
Flu Activity Non disponible.
METAR K14Y 040320Z AUTO 00000KT 7SM CLR 14/11 A2996 RMK AO2

More Conditions Fewer Conditions

10-Day Weather Forecast

×

Almanac

Astronomie

Aug. 03, 2015 Lever Coucher
Temps réel
Crépuscule civil
Crépuscule nautique
Crépuscule astronomique
Lune
Durée de lumière visible
Longueur du jour
Tomorrow will be .
, % of the Moon is Illuminated

Extrêmes aujourd'hui

State Highs State Lows

Community

WunderPhotos

Upload Photos

1,843,838 Photos téléchargées !

WunderBlogs® & News

Nearby

Qualité de l'air

  Qualité de l'air Indice de la qualité de l'air Polluant
Not available.

Épaisseur de neige

Station Depth Altitude

Activité sismique

Ville Distance Mag. Time & Date
Minimum magnitude displayed is 2.5.

Températures des eaux côtières

Lieu Température

Stations

Stations météo à proximité

Emplacement de la station Température Refroidissement éolien Point de rosée Humidité Vent Precip. Alt. Mise à jour Type